sensor_id;sensor_type;location;lat;lon;timestamp;temperature;humidity
32787;DHT22;19139;49.372;8.580;2023-05-15T00:02:20;23.30;84.80
32787;DHT22;19139;49.372;8.580;2023-05-15T00:04:47;23.30;84.60
32787;DHT22;19139;49.372;8.580;2023-05-15T00:07:14;23.30;84.60
32787;DHT22;19139;49.372;8.580;2023-05-15T00:09:41;23.30;84.70
32787;DHT22;19139;49.372;8.580;2023-05-15T00:12:08;23.30;84.70
32787;DHT22;19139;49.372;8.580;2023-05-15T00:14:34;23.30;84.60
32787;DHT22;19139;49.372;8.580;2023-05-15T00:17:01;23.30;84.70
32787;DHT22;19139;49.372;8.580;2023-05-15T00:19:28;23.30;84.70
32787;DHT22;19139;49.372;8.580;2023-05-15T00:22:00;23.30;84.60
32787;DHT22;19139;49.372;8.580;2023-05-15T00:24:32;23.30;84.70
32787;DHT22;19139;49.372;8.580;2023-05-15T00:27:04;23.30;84.60
32787;DHT22;19139;49.372;8.580;2023-05-15T00:29:35;23.30;84.60
32787;DHT22;19139;49.372;8.580;2023-05-15T00:32:02;23.30;84.60
32787;DHT22;19139;49.372;8.580;2023-05-15T00:34:29;23.30;84.60
32787;DHT22;19139;49.372;8.580;2023-05-15T00:36:55;23.20;84.60
32787;DHT22;19139;49.372;8.580;2023-05-15T00:39:22;23.30;84.60
32787;DHT22;19139;49.372;8.580;2023-05-15T00:41:49;23.20;84.60
32787;DHT22;19139;49.372;8.580;2023-05-15T00:44:17;23.30;84.60
32787;DHT22;19139;49.372;8.580;2023-05-15T00:46:46;23.30;84.60
32787;DHT22;19139;49.372;8.580;2023-05-15T00:49:14;23.20;84.60
32787;DHT22;19139;49.372;8.580;2023-05-15T00:51:42;23.30;84.60
32787;DHT22;19139;49.372;8.580;2023-05-15T00:54:09;23.20;84.50
32787;DHT22;19139;49.372;8.580;2023-05-15T00:56:36;23.30;84.60
32787;DHT22;19139;49.372;8.580;2023-05-15T00:59:09;23.30;84.60
32787;DHT22;19139;49.372;8.580;2023-05-15T01:01:36;23.30;84.60
32787;DHT22;19139;49.372;8.580;2023-05-15T01:04:03;23.20;84.50
32787;DHT22;19139;49.372;8.580;2023-05-15T01:06:30;23.30;84.60
32787;DHT22;19139;49.372;8.580;2023-05-15T01:08:59;23.30;84.60
32787;DHT22;19139;49.372;8.580;2023-05-15T01:11:30;23.20;84.50
32787;DHT22;19139;49.372;8.580;2023-05-15T01:14:03;23.20;84.50
32787;DHT22;19139;49.372;8.580;2023-05-15T01:16:31;23.20;84.50
32787;DHT22;19139;49.372;8.580;2023-05-15T01:19:04;23.20;84.50
32787;DHT22;19139;49.372;8.580;2023-05-15T01:27:06;23.20;84.50
32787;DHT22;19139;49.372;8.580;2023-05-15T01:29:36;23.20;84.40
32787;DHT22;19139;49.372;8.580;2023-05-15T01:32:10;23.20;84.40
32787;DHT22;19139;49.372;8.580;2023-05-15T01:34:47;23.20;84.40
32787;DHT22;19139;49.372;8.580;2023-05-15T01:37:21;23.20;84.50
32787;DHT22;19139;49.372;8.580;2023-05-15T01:39:52;23.20;84.40
32787;DHT22;19139;49.372;8.580;2023-05-15T01:42:22;23.20;84.40
32787;DHT22;19139;49.372;8.580;2023-05-15T01:44:54;23.20;84.40
32787;DHT22;19139;49.372;8.580;2023-05-15T01:47:25;23.20;84.40
32787;DHT22;19139;49.372;8.580;2023-05-15T01:49:54;23.20;84.40
32787;DHT22;19139;49.372;8.580;2023-05-15T01:52:36;23.20;84.40
32787;DHT22;19139;49.372;8.580;2023-05-15T01:55:06;23.20;84.50
32787;DHT22;19139;49.372;8.580;2023-05-15T01:57:39;23.20;84.40
32787;DHT22;19139;49.372;8.580;2023-05-15T02:00:08;23.20;84.40
32787;DHT22;19139;49.372;8.580;2023-05-15T02:02:41;23.20;84.40
32787;DHT22;19139;49.372;8.580;2023-05-15T02:05:08;23.20;84.40
32787;DHT22;19139;49.372;8.580;2023-05-15T02:07:36;23.20;84.40
32787;DHT22;19139;49.372;8.580;2023-05-15T02:10:09;23.20;84.40
32787;DHT22;19139;49.372;8.580;2023-05-15T02:12:38;23.20;84.40
32787;DHT22;19139;49.372;8.580;2023-05-15T02:15:10;23.20;84.40
32787;DHT22;19139;49.372;8.580;2023-05-15T02:17:42;23.20;85.10
32787;DHT22;19139;49.372;8.580;2023-05-15T02:20:09;23.20;84.40
32787;DHT22;19139;49.372;8.580;2023-05-15T02:22:36;23.20;84.40
32787;DHT22;19139;49.372;8.580;2023-05-15T02:25:03;23.20;84.40
32787;DHT22;19139;49.372;8.580;2023-05-15T02:30:22;23.20;84.40
32787;DHT22;19139;49.372;8.580;2023-05-15T02:35:52;23.20;84.40
32787;DHT22;19139;49.372;8.580;2023-05-15T02:38:27;23.20;84.40
32787;DHT22;19139;49.372;8.580;2023-05-15T02:40:59;23.20;84.40
32787;DHT22;19139;49.372;8.580;2023-05-15T02:43:27;23.20;84.40
32787;DHT22;19139;49.372;8.580;2023-05-15T02:45:59;23.20;84.40
32787;DHT22;19139;49.372;8.580;2023-05-15T02:48:26;23.20;84.40
32787;DHT22;19139;49.372;8.580;2023-05-15T02:50:53;23.20;84.40
32787;DHT22;19139;49.372;8.580;2023-05-15T02:53:19;23.20;84.40
32787;DHT22;19139;49.372;8.580;2023-05-15T02:55:46;23.10;84.30
32787;DHT22;19139;49.372;8.580;2023-05-15T02:58:13;23.20;84.40
32787;DHT22;19139;49.372;8.580;2023-05-15T03:00:40;23.20;84.30
32787;DHT22;19139;49.372;8.580;2023-05-15T03:03:11;23.20;84.40
32787;DHT22;19139;49.372;8.580;2023-05-15T03:05:38;23.20;84.40
32787;DHT22;19139;49.372;8.580;2023-05-15T03:08:05;23.20;84.30
32787;DHT22;19139;49.372;8.580;2023-05-15T03:10:36;23.20;84.40
32787;DHT22;19139;49.372;8.580;2023-05-15T03:13:08;23.20;84.40
32787;DHT22;19139;49.372;8.580;2023-05-15T03:15:39;23.10;84.30
32787;DHT22;19139;49.372;8.580;2023-05-15T03:18:10;23.10;84.30
32787;DHT22;19139;49.372;8.580;2023-05-15T03:20:37;23.10;84.30
32787;DHT22;19139;49.372;8.580;2023-05-15T03:23:04;23.10;84.20
32787;DHT22;19139;49.372;8.580;2023-05-15T03:25:30;23.10;84.20
32787;DHT22;19139;49.372;8.580;2023-05-15T03:27:57;23.10;84.20
32787;DHT22;19139;49.372;8.580;2023-05-15T03:30:24;23.10;84.30
32787;DHT22;19139;49.372;8.580;2023-05-15T03:32:50;23.10;84.30
32787;DHT22;19139;49.372;8.580;2023-05-15T03:35:17;23.10;84.20
32787;DHT22;19139;49.372;8.580;2023-05-15T03:37:43;23.10;84.20
32787;DHT22;19139;49.372;8.580;2023-05-15T03:40:11;23.10;84.20
32787;DHT22;19139;49.372;8.580;2023-05-15T03:42:37;23.10;84.20
32787;DHT22;19139;49.372;8.580;2023-05-15T03:45:04;23.10;84.20
32787;DHT22;19139;49.372;8.580;2023-05-15T03:47:31;23.10;84.20
32787;DHT22;19139;49.372;8.580;2023-05-15T03:49:58;23.10;84.20
32787;DHT22;19139;49.372;8.580;2023-05-15T03:52:29;23.10;84.20
32787;DHT22;19139;49.372;8.580;2023-05-15T03:54:56;23.10;84.20
32787;DHT22;19139;49.372;8.580;2023-05-15T03:57:22;23.10;84.20
32787;DHT22;19139;49.372;8.580;2023-05-15T03:59:49;23.10;84.20
32787;DHT22;19139;49.372;8.580;2023-05-15T04:02:16;23.10;84.20
32787;DHT22;19139;49.372;8.580;2023-05-15T04:04:42;23.10;84.20
32787;DHT22;19139;49.372;8.580;2023-05-15T04:07:10;23.10;84.20
32787;DHT22;19139;49.372;8.580;2023-05-15T04:09:36;23.10;84.20
32787;DHT22;19139;49.372;8.580;2023-05-15T04:12:04;23.10;84.20
32787;DHT22;19139;49.372;8.580;2023-05-15T04:14:31;23.10;84.20
32787;DHT22;19139;49.372;8.580;2023-05-15T04:16:57;23.10;84.20
32787;DHT22;19139;49.372;8.580;2023-05-15T04:19:24;23.10;84.20
32787;DHT22;19139;49.372;8.580;2023-05-15T04:21:50;23.10;85.00
32787;DHT22;19139;49.372;8.580;2023-05-15T04:24:17;23.10;84.20
32787;DHT22;19139;49.372;8.580;2023-05-15T04:26:48;23.10;84.20
32787;DHT22;19139;49.372;8.580;2023-05-15T04:29:15;23.10;84.20
32787;DHT22;19139;49.372;8.580;2023-05-15T04:31:42;23.10;84.20
32787;DHT22;19139;49.372;8.580;2023-05-15T04:34:08;23.10;84.10
32787;DHT22;19139;49.372;8.580;2023-05-15T04:36:35;23.10;84.90
32787;DHT22;19139;49.372;8.580;2023-05-15T04:39:02;23.10;84.10
32787;DHT22;19139;49.372;8.580;2023-05-15T04:41:28;23.10;84.10
32787;DHT22;19139;49.372;8.580;2023-05-15T04:43:55;23.10;84.20
32787;DHT22;19139;49.372;8.580;2023-05-15T04:46:27;23.10;84.20
32787;DHT22;19139;49.372;8.580;2023-05-15T04:48:54;23.10;84.20
32787;DHT22;19139;49.372;8.580;2023-05-15T04:51:21;23.10;84.10
32787;DHT22;19139;49.372;8.580;2023-05-15T04:53:47;23.10;84.10
32787;DHT22;19139;49.372;8.580;2023-05-15T04:56:14;23.10;84.10
32787;DHT22;19139;49.372;8.580;2023-05-15T04:58:45;23.10;84.10
32787;DHT22;19139;49.372;8.580;2023-05-15T05:01:17;23.10;84.10
32787;DHT22;19139;49.372;8.580;2023-05-15T05:03:43;23.10;84.00
32787;DHT22;19139;49.372;8.580;2023-05-15T05:06:10;23.10;84.00
32787;DHT22;19139;49.372;8.580;2023-05-15T05:08:37;23.10;84.00
32787;DHT22;19139;49.372;8.580;2023-05-15T05:11:03;23.10;84.00
32787;DHT22;19139;49.372;8.580;2023-05-15T05:13:30;23.10;84.00
32787;DHT22;19139;49.372;8.580;2023-05-15T05:15:57;23.10;84.00
32787;DHT22;19139;49.372;8.580;2023-05-15T05:18:23;23.10;84.00
32787;DHT22;19139;49.372;8.580;2023-05-15T05:21:00;23.10;84.00
32787;DHT22;19139;49.372;8.580;2023-05-15T05:23:28;23.00;84.00
32787;DHT22;19139;49.372;8.580;2023-05-15T05:25:55;23.00;84.00
32787;DHT22;19139;49.372;8.580;2023-05-15T05:28:21;23.10;84.10
32787;DHT22;19139;49.372;8.580;2023-05-15T05:30:48;23.00;84.00
32787;DHT22;19139;49.372;8.580;2023-05-15T05:33:15;23.10;84.00
32787;DHT22;19139;49.372;8.580;2023-05-15T05:35:41;23.10;84.00
32787;DHT22;19139;49.372;8.580;2023-05-15T05:38:08;23.00;84.00
32787;DHT22;19139;49.372;8.580;2023-05-15T05:40:34;23.00;84.00
32787;DHT22;19139;49.372;8.580;2023-05-15T05:43:06;23.10;84.00
32787;DHT22;19139;49.372;8.580;2023-05-15T05:45:37;23.00;84.00
32787;DHT22;19139;49.372;8.580;2023-05-15T05:48:04;23.00;84.00
32787;DHT22;19139;49.372;8.580;2023-05-15T05:50:31;23.00;83.90
32787;DHT22;19139;49.372;8.580;2023-05-15T05:53:02;23.00;83.90
32787;DHT22;19139;49.372;8.580;2023-05-15T05:55:29;23.00;83.90
32787;DHT22;19139;49.372;8.580;2023-05-15T05:57:56;23.00;84.00
32787;DHT22;19139;49.372;8.580;2023-05-15T06:00:27;23.00;83.90
32787;DHT22;19139;49.372;8.580;2023-05-15T06:02:58;23.00;84.00
32787;DHT22;19139;49.372;8.580;2023-05-15T06:05:30;23.00;83.90
32787;DHT22;19139;49.372;8.580;2023-05-15T06:07:56;23.00;84.00
32787;DHT22;19139;49.372;8.580;2023-05-15T06:10:23;23.00;84.00
32787;DHT22;19139;49.372;8.580;2023-05-15T06:12:50;23.00;84.00
32787;DHT22;19139;49.372;8.580;2023-05-15T06:15:17;23.00;83.90
32787;DHT22;19139;49.372;8.580;2023-05-15T06:17:49;23.00;83.90
32787;DHT22;19139;49.372;8.580;2023-05-15T06:20:15;23.00;83.90
32787;DHT22;19139;49.372;8.580;2023-05-15T06:22:47;23.00;83.90
32787;DHT22;19139;49.372;8.580;2023-05-15T06:25:13;23.00;83.90
32787;DHT22;19139;49.372;8.580;2023-05-15T06:27:40;23.00;83.90
32787;DHT22;19139;49.372;8.580;2023-05-15T06:30:10;23.00;84.00
32787;DHT22;19139;49.372;8.580;2023-05-15T06:32:37;23.00;83.90
32787;DHT22;19139;49.372;8.580;2023-05-15T06:35:08;23.00;84.00
32787;DHT22;19139;49.372;8.580;2023-05-15T06:37:40;23.00;83.90
32787;DHT22;19139;49.372;8.580;2023-05-15T06:40:07;23.00;84.00
32787;DHT22;19139;49.372;8.580;2023-05-15T06:42:34;23.00;84.00
32787;DHT22;19139;49.372;8.580;2023-05-15T06:45:01;23.00;84.00
32787;DHT22;19139;49.372;8.580;2023-05-15T06:47:27;23.00;84.00
32787;DHT22;19139;49.372;8.580;2023-05-15T06:49:59;23.00;84.00
32787;DHT22;19139;49.372;8.580;2023-05-15T06:52:30;23.00;84.00
32787;DHT22;19139;49.372;8.580;2023-05-15T06:54:57;23.00;83.90
32787;DHT22;19139;49.372;8.580;2023-05-15T06:57:28;23.00;84.00
32787;DHT22;19139;49.372;8.580;2023-05-15T07:00:00;23.00;84.00
32787;DHT22;19139;49.372;8.580;2023-05-15T07:02:26;23.00;84.00
32787;DHT22;19139;49.372;8.580;2023-05-15T07:04:58;22.90;84.00
32787;DHT22;19139;49.372;8.580;2023-05-15T07:07:24;23.00;84.00
32787;DHT22;19139;49.372;8.580;2023-05-15T07:09:51;23.00;84.00
32787;DHT22;19139;49.372;8.580;2023-05-15T07:12:17;23.00;84.00
32787;DHT22;19139;49.372;8.580;2023-05-15T07:14:44;22.90;83.90
32787;DHT22;19139;49.372;8.580;2023-05-15T07:17:11;22.90;83.90
32787;DHT22;19139;49.372;8.580;2023-05-15T07:19:37;22.90;84.00
32787;DHT22;19139;49.372;8.580;2023-05-15T07:22:04;22.90;84.00
32787;DHT22;19139;49.372;8.580;2023-05-15T07:24:31;23.00;84.00
32787;DHT22;19139;49.372;8.580;2023-05-15T07:26:58;22.90;84.00
32787;DHT22;19139;49.372;8.580;2023-05-15T07:29:25;23.00;84.00
32787;DHT22;19139;49.372;8.580;2023-05-15T07:31:51;22.90;84.00
32787;DHT22;19139;49.372;8.580;2023-05-15T07:34:18;22.90;84.00
32787;DHT22;19139;49.372;8.580;2023-05-15T07:36:45;22.90;84.00
32787;DHT22;19139;49.372;8.580;2023-05-15T07:39:12;22.90;84.00
32787;DHT22;19139;49.372;8.580;2023-05-15T07:41:39;22.90;84.00
32787;DHT22;19139;49.372;8.580;2023-05-15T07:44:05;22.90;84.00
32787;DHT22;19139;49.372;8.580;2023-05-15T07:46:33;22.90;84.00
32787;DHT22;19139;49.372;8.580;2023-05-15T07:49:00;22.90;84.00
32787;DHT22;19139;49.372;8.580;2023-05-15T07:51:27;22.90;84.00
32787;DHT22;19139;49.372;8.580;2023-05-15T07:53:54;22.90;84.00
32787;DHT22;19139;49.372;8.580;2023-05-15T07:56:21;22.90;84.00
32787;DHT22;19139;49.372;8.580;2023-05-15T07:58:47;22.90;84.00
32787;DHT22;19139;49.372;8.580;2023-05-15T08:01:14;22.90;84.00
32787;DHT22;19139;49.372;8.580;2023-05-15T08:03:41;22.90;84.00
32787;DHT22;19139;49.372;8.580;2023-05-15T08:06:12;22.90;84.00
32787;DHT22;19139;49.372;8.580;2023-05-15T08:08:39;22.90;84.00
32787;DHT22;19139;49.372;8.580;2023-05-15T08:11:06;22.90;84.00
32787;DHT22;19139;49.372;8.580;2023-05-15T08:13:32;22.90;84.00
32787;DHT22;19139;49.372;8.580;2023-05-15T08:15:59;22.90;84.00
32787;DHT22;19139;49.372;8.580;2023-05-15T08:18:26;22.90;84.00
32787;DHT22;19139;49.372;8.580;2023-05-15T08:20:57;22.90;84.00
32787;DHT22;19139;49.372;8.580;2023-05-15T08:23:29;22.90;84.00
32787;DHT22;19139;49.372;8.580;2023-05-15T08:25:55;22.90;84.00
32787;DHT22;19139;49.372;8.580;2023-05-15T08:28:27;22.90;84.00
32787;DHT22;19139;49.372;8.580;2023-05-15T08:30:59;22.90;84.00
32787;DHT22;19139;49.372;8.580;2023-05-15T08:33:25;22.90;84.00
32787;DHT22;19139;49.372;8.580;2023-05-15T08:35:52;22.90;84.00
32787;DHT22;19139;49.372;8.580;2023-05-15T08:38:18;22.90;84.00
32787;DHT22;19139;49.372;8.580;2023-05-15T08:40:46;22.90;84.00
32787;DHT22;19139;49.372;8.580;2023-05-15T08:43:16;23.00;84.00
32787;DHT22;19139;49.372;8.580;2023-05-15T08:45:43;22.90;84.00
32787;DHT22;19139;49.372;8.580;2023-05-15T08:48:13;22.90;84.00
32787;DHT22;19139;49.372;8.580;2023-05-15T08:50:42;22.90;84.00
32787;DHT22;19139;49.372;8.580;2023-05-15T08:53:11;22.90;84.00
32787;DHT22;19139;49.372;8.580;2023-05-15T08:55:39;22.90;84.00
32787;DHT22;19139;49.372;8.580;2023-05-15T08:58:06;23.00;84.00
32787;DHT22;19139;49.372;8.580;2023-05-15T09:00:33;22.90;83.90
32787;DHT22;19139;49.372;8.580;2023-05-15T09:03:00;22.90;84.00
32787;DHT22;19139;49.372;8.580;2023-05-15T09:05:28;23.00;84.00
32787;DHT22;19139;49.372;8.580;2023-05-15T09:07:55;22.90;84.00
32787;DHT22;19139;49.372;8.580;2023-05-15T09:10:22;23.00;84.00
32787;DHT22;19139;49.372;8.580;2023-05-15T09:12:50;23.00;84.00
32787;DHT22;19139;49.372;8.580;2023-05-15T09:15:18;23.00;84.10
32787;DHT22;19139;49.372;8.580;2023-05-15T09:17:49;22.90;84.00
32787;DHT22;19139;49.372;8.580;2023-05-15T09:20:27;22.90;84.00
32787;DHT22;19139;49.372;8.580;2023-05-15T09:22:55;22.90;84.00
32787;DHT22;19139;49.372;8.580;2023-05-15T09:28:05;23.00;84.00
32787;DHT22;19139;49.372;8.580;2023-05-15T09:30:32;23.00;84.10
32787;DHT22;19139;49.372;8.580;2023-05-15T09:33:04;22.90;84.00
32787;DHT22;19139;49.372;8.580;2023-05-15T09:35:37;22.90;84.00
32787;DHT22;19139;49.372;8.580;2023-05-15T09:38:10;23.00;84.00
32787;DHT22;19139;49.372;8.580;2023-05-15T09:40:38;22.90;84.00
32787;DHT22;19139;49.372;8.580;2023-05-15T09:43:09;22.90;84.00
32787;DHT22;19139;49.372;8.580;2023-05-15T09:45:36;22.90;84.00
32787;DHT22;19139;49.372;8.580;2023-05-15T09:48:04;22.90;84.00
32787;DHT22;19139;49.372;8.580;2023-05-15T09:50:36;22.90;84.00
32787;DHT22;19139;49.372;8.580;2023-05-15T09:53:04;23.00;84.10
32787;DHT22;19139;49.372;8.580;2023-05-15T09:55:34;22.90;84.10
32787;DHT22;19139;49.372;8.580;2023-05-15T09:58:09;22.90;84.00
32787;DHT22;19139;49.372;8.580;2023-05-15T10:00:42;22.90;84.00
32787;DHT22;19139;49.372;8.580;2023-05-15T10:03:15;23.00;84.20
32787;DHT22;19139;49.372;8.580;2023-05-15T10:05:47;23.00;84.10
32787;DHT22;19139;49.372;8.580;2023-05-15T10:08:15;23.00;84.10
32787;DHT22;19139;49.372;8.580;2023-05-15T10:10:51;23.00;84.20
32787;DHT22;19139;49.372;8.580;2023-05-15T10:13:20;23.00;84.20
32787;DHT22;19139;49.372;8.580;2023-05-15T10:15:48;22.90;84.00
32787;DHT22;19139;49.372;8.580;2023-05-15T10:18:20;22.90;84.10
32787;DHT22;19139;49.372;8.580;2023-05-15T10:20:50;22.90;84.10
32787;DHT22;19139;49.372;8.580;2023-05-15T10:23:22;22.90;84.10
32787;DHT22;19139;49.372;8.580;2023-05-15T10:26:01;22.90;84.10
32787;DHT22;19139;49.372;8.580;2023-05-15T10:28:30;22.90;84.10
32787;DHT22;19139;49.372;8.580;2023-05-15T10:30:59;22.90;84.10
32787;DHT22;19139;49.372;8.580;2023-05-15T10:33:28;23.00;84.20
32787;DHT22;19139;49.372;8.580;2023-05-15T10:36:00;23.00;84.20
32787;DHT22;19139;49.372;8.580;2023-05-15T10:38:28;23.00;84.60
32787;DHT22;19139;49.372;8.580;2023-05-15T10:40:59;22.90;84.60
32787;DHT22;19139;49.372;8.580;2023-05-15T10:43:43;22.90;84.60
32787;DHT22;19139;49.372;8.580;2023-05-15T10:46:10;22.90;84.60
32787;DHT22;19139;49.372;8.580;2023-05-15T10:48:39;22.90;84.50
32787;DHT22;19139;49.372;8.580;2023-05-15T10:51:32;22.90;84.50
32787;DHT22;19139;49.372;8.580;2023-05-15T10:54:01;23.00;84.50
32787;DHT22;19139;49.372;8.580;2023-05-15T10:56:37;23.00;84.60
32787;DHT22;19139;49.372;8.580;2023-05-15T10:59:05;23.00;84.50
32787;DHT22;19139;49.372;8.580;2023-05-15T11:01:37;22.90;84.50
32787;DHT22;19139;49.372;8.580;2023-05-15T11:04:15;23.00;84.50
32787;DHT22;19139;49.372;8.580;2023-05-15T11:06:46;23.00;84.60
32787;DHT22;19139;49.372;8.580;2023-05-15T11:09:33;23.00;84.50
32787;DHT22;19139;49.372;8.580;2023-05-15T11:12:04;23.00;84.50
32787;DHT22;19139;49.372;8.580;2023-05-15T11:17:10;23.00;84.50
32787;DHT22;19139;49.372;8.580;2023-05-15T11:19:53;22.90;84.40
32787;DHT22;19139;49.372;8.580;2023-05-15T11:22:33;22.90;84.40
32787;DHT22;19139;49.372;8.580;2023-05-15T11:25:04;23.00;84.50
32787;DHT22;19139;49.372;8.580;2023-05-15T11:30:21;23.00;84.50
32787;DHT22;19139;49.372;8.580;2023-05-15T11:35:33;23.00;84.50
32787;DHT22;19139;49.372;8.580;2023-05-15T11:38:18;23.00;84.50
32787;DHT22;19139;49.372;8.580;2023-05-15T11:40:51;23.00;84.50
32787;DHT22;19139;49.372;8.580;2023-05-15T11:46:03;23.00;84.60
32787;DHT22;19139;49.372;8.580;2023-05-15T11:48:32;23.00;84.60
32787;DHT22;19139;49.372;8.580;2023-05-15T11:51:02;23.00;84.60
32787;DHT22;19139;49.372;8.580;2023-05-15T11:53:34;23.00;84.60
32787;DHT22;19139;49.372;8.580;2023-05-15T11:56:01;23.00;84.60
32787;DHT22;19139;49.372;8.580;2023-05-15T11:58:28;23.00;84.60
32787;DHT22;19139;49.372;8.580;2023-05-15T12:00:54;23.00;84.60
32787;DHT22;19139;49.372;8.580;2023-05-15T12:03:31;23.00;84.60
32787;DHT22;19139;49.372;8.580;2023-05-15T12:06:00;23.00;84.60
32787;DHT22;19139;49.372;8.580;2023-05-15T12:08:35;23.00;84.60
32787;DHT22;19139;49.372;8.580;2023-05-15T12:11:07;23.00;84.60
32787;DHT22;19139;49.372;8.580;2023-05-15T12:13:34;23.00;84.60
32787;DHT22;19139;49.372;8.580;2023-05-15T12:16:02;23.00;84.60
32787;DHT22;19139;49.372;8.580;2023-05-15T12:18:32;23.00;84.60
32787;DHT22;19139;49.372;8.580;2023-05-15T12:21:04;23.00;84.60
32787;DHT22;19139;49.372;8.580;2023-05-15T12:23:36;23.00;84.60
32787;DHT22;19139;49.372;8.580;2023-05-15T12:26:02;23.00;84.60
32787;DHT22;19139;49.372;8.580;2023-05-15T12:28:34;23.00;84.60
32787;DHT22;19139;49.372;8.580;2023-05-15T12:31:01;23.00;84.70
32787;DHT22;19139;49.372;8.580;2023-05-15T12:33:29;23.00;84.70
32787;DHT22;19139;49.372;8.580;2023-05-15T12:35:56;23.00;84.60
32787;DHT22;19139;49.372;8.580;2023-05-15T12:38:27;23.00;84.60
32787;DHT22;19139;49.372;8.580;2023-05-15T12:40:54;23.00;84.60
32787;DHT22;19139;49.372;8.580;2023-05-15T12:43:23;23.00;84.60
32787;DHT22;19139;49.372;8.580;2023-05-15T12:45:54;23.00;84.60
32787;DHT22;19139;49.372;8.580;2023-05-15T12:48:21;23.00;84.60
32787;DHT22;19139;49.372;8.580;2023-05-15T12:50:48;23.00;84.70
32787;DHT22;19139;49.372;8.580;2023-05-15T12:53:16;23.00;84.70
32787;DHT22;19139;49.372;8.580;2023-05-15T12:55:44;23.00;84.70
32787;DHT22;19139;49.372;8.580;2023-05-15T12:58:13;23.00;84.60
32787;DHT22;19139;49.372;8.580;2023-05-15T13:00:41;23.10;84.80
32787;DHT22;19139;49.372;8.580;2023-05-15T13:03:10;23.00;84.70
32787;DHT22;19139;49.372;8.580;2023-05-15T13:05:40;23.00;84.70
32787;DHT22;19139;49.372;8.580;2023-05-15T13:08:07;23.00;84.70
32787;DHT22;19139;49.372;8.580;2023-05-15T13:10:36;23.00;84.70
32787;DHT22;19139;49.372;8.580;2023-05-15T13:13:03;23.00;84.70
32787;DHT22;19139;49.372;8.580;2023-05-15T13:15:35;23.00;84.70
32787;DHT22;19139;49.372;8.580;2023-05-15T13:20:32;23.00;85.50
32787;DHT22;19139;49.372;8.580;2023-05-15T13:23:04;23.00;84.70
32787;DHT22;19139;49.372;8.580;2023-05-15T13:25:31;23.10;84.80
32787;DHT22;19139;49.372;8.580;2023-05-15T13:28:00;23.10;85.60
32787;DHT22;19139;49.372;8.580;2023-05-15T13:30:33;23.00;84.70
32787;DHT22;19139;49.372;8.580;2023-05-15T13:33:04;23.10;84.80
32787;DHT22;19139;49.372;8.580;2023-05-15T13:35:37;23.10;84.80
32787;DHT22;19139;49.372;8.580;2023-05-15T13:38:04;23.10;84.80
32787;DHT22;19139;49.372;8.580;2023-05-15T13:40:30;23.10;84.80
32787;DHT22;19139;49.372;8.580;2023-05-15T13:43:08;23.10;84.80
32787;DHT22;19139;49.372;8.580;2023-05-15T13:45:35;23.10;84.80
32787;DHT22;19139;49.372;8.580;2023-05-15T13:48:02;23.10;84.80
32787;DHT22;19139;49.372;8.580;2023-05-15T13:50:34;23.10;84.80
32787;DHT22;19139;49.372;8.580;2023-05-15T13:53:06;23.10;84.80
32787;DHT22;19139;49.372;8.580;2023-05-15T13:55:32;23.10;84.80
32787;DHT22;19139;49.372;8.580;2023-05-15T13:58:00;23.10;84.80
32787;DHT22;19139;49.372;8.580;2023-05-15T14:00:26;23.10;84.80
32787;DHT22;19139;49.372;8.580;2023-05-15T14:02:58;23.10;84.80
32787;DHT22;19139;49.372;8.580;2023-05-15T14:05:25;23.10;84.80
32787;DHT22;19139;49.372;8.580;2023-05-15T14:07:52;23.10;84.80
32787;DHT22;19139;49.372;8.580;2023-05-15T14:10:18;23.10;84.80
32787;DHT22;19139;49.372;8.580;2023-05-15T14:12:45;23.10;84.80
32787;DHT22;19139;49.372;8.580;2023-05-15T14:15:12;23.10;84.80
32787;DHT22;19139;49.372;8.580;2023-05-15T14:17:39;23.10;84.80
32787;DHT22;19139;49.372;8.580;2023-05-15T14:20:06;23.10;84.80
32787;DHT22;19139;49.372;8.580;2023-05-15T14:22:40;23.10;84.80
32787;DHT22;19139;49.372;8.580;2023-05-15T14:25:07;23.10;84.80
32787;DHT22;19139;49.372;8.580;2023-05-15T14:27:34;23.10;84.80
32787;DHT22;19139;49.372;8.580;2023-05-15T14:30:00;23.10;84.80
32787;DHT22;19139;49.372;8.580;2023-05-15T14:32:27;23.10;84.80
32787;DHT22;19139;49.372;8.580;2023-05-15T14:34:59;23.10;84.80
32787;DHT22;19139;49.372;8.580;2023-05-15T14:37:26;23.10;84.80
32787;DHT22;19139;49.372;8.580;2023-05-15T14:39:53;23.10;84.80
32787;DHT22;19139;49.372;8.580;2023-05-15T14:42:20;23.10;84.80
32787;DHT22;19139;49.372;8.580;2023-05-15T14:44:47;23.10;84.80
32787;DHT22;19139;49.372;8.580;2023-05-15T14:47:14;23.10;84.80
32787;DHT22;19139;49.372;8.580;2023-05-15T14:49:42;23.10;84.80
32787;DHT22;19139;49.372;8.580;2023-05-15T14:52:09;23.10;84.80
32787;DHT22;19139;49.372;8.580;2023-05-15T14:54:37;23.10;85.60
32787;DHT22;19139;49.372;8.580;2023-05-15T14:57:04;23.10;84.80
32787;DHT22;19139;49.372;8.580;2023-05-15T14:59:31;23.10;84.90
32787;DHT22;19139;49.372;8.580;2023-05-15T15:01:58;23.20;84.80
32787;DHT22;19139;49.372;8.580;2023-05-15T15:04:24;23.20;84.90
32787;DHT22;19139;49.372;8.580;2023-05-15T15:07:03;23.10;84.80
32787;DHT22;19139;49.372;8.580;2023-05-15T15:09:30;23.20;84.80
32787;DHT22;19139;49.372;8.580;2023-05-15T15:12:02;23.10;84.80
32787;DHT22;19139;49.372;8.580;2023-05-15T15:14:30;23.10;84.80
32787;DHT22;19139;49.372;8.580;2023-05-15T15:16:56;23.10;84.80
32787;DHT22;19139;49.372;8.580;2023-05-15T15:19:23;23.20;84.80
32787;DHT22;19139;49.372;8.580;2023-05-15T15:21:50;23.20;84.80
32787;DHT22;19139;49.372;8.580;2023-05-15T15:24:16;23.10;84.80
32787;DHT22;19139;49.372;8.580;2023-05-15T15:26:43;23.10;84.80
32787;DHT22;19139;49.372;8.580;2023-05-15T15:29:09;23.20;84.80
32787;DHT22;19139;49.372;8.580;2023-05-15T15:31:41;23.20;84.80
32787;DHT22;19139;49.372;8.580;2023-05-15T15:34:12;23.20;84.80
32787;DHT22;19139;49.372;8.580;2023-05-15T15:36:39;23.10;84.80
32787;DHT22;19139;49.372;8.580;2023-05-15T15:39:11;23.20;84.80
32787;DHT22;19139;49.372;8.580;2023-05-15T15:41:43;23.20;84.80
32787;DHT22;19139;49.372;8.580;2023-05-15T15:44:09;23.20;84.80
32787;DHT22;19139;49.372;8.580;2023-05-15T15:46:36;23.20;84.80
32787;DHT22;19139;49.372;8.580;2023-05-15T15:49:03;23.20;84.90
32787;DHT22;19139;49.372;8.580;2023-05-15T15:51:32;23.20;84.80
32787;DHT22;19139;49.372;8.580;2023-05-15T15:53:58;23.20;84.80
32787;DHT22;19139;49.372;8.580;2023-05-15T15:56:25;23.20;84.80
32787;DHT22;19139;49.372;8.580;2023-05-15T15:58:52;23.20;84.80
32787;DHT22;19139;49.372;8.580;2023-05-15T16:01:18;23.20;84.80
32787;DHT22;19139;49.372;8.580;2023-05-15T16:03:45;23.20;84.80
32787;DHT22;19139;49.372;8.580;2023-05-15T16:06:11;23.20;84.80
32787;DHT22;19139;49.372;8.580;2023-05-15T16:08:38;23.20;84.80